LFPM 210400Z AUTO 36006KT CAVOK 01/00 Q1036

ElémentsDécodage
LFPM Station météo située sur l'aérodrome de MELUN Villaroche
210400Z émis le 21 du mois à 04h00 UTC
AUTO Bulletin édité par un automate
36006KT vent du 360°, 06 noeuds
CAVOK Ceiling And Visibility OK
- Visibilité de 10 Km ou plus
- Pas de nuage au-dessous de 1500m ou au-dessous de l'altitude minimale du secteur la plus élevée (si>1500m) et absence de CB
- pas de temps présent significatif
01/00 température 01°C, point de rosée 00°C
 soit une humidité relative de 93%
Q1036 la pression au niveau de la mer (QNH) est de 1036 hPa